Aviation Digital Data Service (ADDS)

Output produced by METARs form (2152 UTC 19 February 2018)
found at http://www.aviationweather.gov/adds/metars/
 
LCRA 192050Z 30002KT 9999 SCT030 BKN140 OVC190 14/11 Q1015 NOSIG
TAF LCRA 191931Z 1921/2015 30005KT CAVOK 
     PROB30 
     TEMPO 2004/2015 6000 SHRA SCT022CB
       
LCEN 192120Z 22004KT 9999 FEW025 BKN100 11/10 Q1015 NOSIG RMK RWY11 25006KT
TAF LCEN 191640Z 1918/2018 29012KT 9999 FEW025 SCT100 BKN200
       
LCLK 192130Z 30004KT 9999 FEW030 12/12 Q1015 NOSIG
TAF LCLK 191730Z 1918/2018 32006KT 9999 FEW020 
     BECMG 2007/2010 20010KT 
     BECMG 2016/2020 32006KT
       
LCPH 192130Z 03005KT 9999 FEW020 13/11 Q1015
TAF LCPH 191730Z 1918/2018 02006KT 9999 FEW020 
     BECMG 2007/2010 27010KT 
     BECMG 2016/2020 03006KT
       
LCRA 192050Z 30002KT 9999 SCT030 BKN140 OVC190 14/11 Q1015 NOSIG
TAF LCRA 191931Z 1921/2015 30005KT CAVOK 
     PROB30 
     TEMPO 2004/2015 6000 SHRA SCT022CB
       
LCLK 192130Z 30004KT 9999 FEW030 12/12 Q1015 NOSIG
TAF LCLK 191730Z 1918/2018 32006KT 9999 FEW020 
     BECMG 2007/2010 20010KT 
     BECMG 2016/2020 32006KT
       
LCPH 192130Z 03005KT 9999 FEW020 13/11 Q1015
TAF LCPH 191730Z 1918/2018 02006KT 9999 FEW020 
     BECMG 2007/2010 27010KT 
     BECMG 2016/2020 03006KT